Station: Richmond  

  Atmospheric Gas Attenuation - ITU Rec 676-11   ----------------- dB/100km -----------------
Date Time Temp RH % AH g/m3 Dew Point Wind Direction Speed kph Gust kph Barometer mB Rainfall Since 9am 24GHz 47GHz 76GHz 122GHz 134GHz 241GHz
08/05 12:30 21.2 35 6.49 5.1 17 30 1017.2 0 14.8 21.0 29.1 75.9 65.5 224.1
08/05 12:20 20.9 38 6.92 6.1 15 19 1017.2 0 15.7 21.7 30.6 80.0 70.6 241.9
08/05 12:10 20.3 39 6.86 5.9 20 20 1017.2 0 15.6 21.7 30.7 80.1 70.4 241.2
08/05 12:00 19.9 40 6.87 5.9 11 22 1017.4 0 15.7 21.8 30.9 80.6 70.9 242.9
08/05 11:50 19.5 40 6.71 5.6 9 13 1017.7 0 15.3 21.7 30.5 79.5 69.5 237.7
08/05 11:40 19.1 40 6.56 5.2 6 11 1017.9 0 15.0 21.6 30.1 78.5 68.1 232.8
08/05 11:30 18.8 39 6.28 4.6 9 17 1018.1 0 14.5 21.3 29.2 76.2 65.2 222.5
08/05 11:20 18.9 40 6.48 5 4 9 1018.3 0 14.9 21.5 29.9 78.0 67.4 230.3
08/05 11:10 18.2 40 6.22 4.4 9 11 1018.3 0 14.4 21.3 29.3 76.3 65.0 221.8
08/05 11:00 18.6 41 6.52 5.1 9 17 1018.6 0 15.0 21.7 30.2 78.7 68.1 232.8
08/05 10:50 18.5 44 6.96 6 7 9 1018.7 0 15.9 22.3 31.8 82.9 73.3 251.0
08/05 10:40 18.1 43 6.64 5.3 9 11 1018.7 0 15.2 22.0 30.8 80.3 69.9 239.1
08/05 10:30 18.3 43 6.72 5.5 7 13 1018.7 0 15.4 22.0 31.0 80.9 70.7 241.8
08/05 10:20 18.3 43 6.72 5.5 6 9 1018.9 0 15.4 22.0 31.0 80.9 70.7 241.9
08/05 10:10 17.7 43 6.49 5 7 9 1018.9 0 14.9 21.9 30.4 79.3 68.5 234.2
08/05 10:00 18 45 6.91 5.9 9 15 1018.8 0 15.8 22.4 31.8 83.0 73.2 250.5
08/05 09:50 17.1 45 6.55 5.1 11 15 1018.9 0 15.1 22.1 30.8 80.5 69.8 238.4
08/05 09:40 16.6 46 6.5 4.9 9 11 1018.8 0 15.0 22.1 30.8 80.5 69.6 237.8
08/05 09:30 16.5 48 6.74 5.5 7 13 1018.8 0 15.5 22.5 31.7 82.9 72.5 248.1
08/05 09:20 15.6 50 6.65 5.2 6 7 1018.9 0 15.4 22.6 31.8 83.0 72.3 247.1
08/05 09:10 14.9 54 6.88 5.7 11 13 1019 0 15.9 23.1 32.9 86.0 75.7 259.1
08/05 09:00 14.5 55 6.84 5.6 7 11 1019 0 15.8 23.2 32.9 86.0 75.6 258.7
08/05 08:50 13.9 57 6.83 5.5 7 9 1018.9 0 15.8 23.3 33.1 86.5 76.1 260.2
08/05 08:40 13 62 7.03 5.9 7 9 1018.7 0 16.3 23.8 34.2 89.5 79.4 271.9
08/05 08:30 12.3 66 7.17 6.1 11 13 1018.7 0 16.6 24.2 35.1 91.8 81.9 280.6
08/05 08:20 11.1 68 6.85 5.4 11 11 1018.7 0 16.0 24.1 34.4 89.8 79.1 270.3
08/05 08:10 9.9 73 6.82 5.3 7 9 1018.7 0 16.0 24.3 34.8 90.9 79.9 273.1
08/05 08:00 8.8 74 6.44 4.4 9 13 1018.8 0 15.2 24.0 33.7 88.1 76.0 259.4
08/05 07:50 8.5 75 6.41 4.3 7 11 1018.8 0 15.1 24.1 33.7 88.1 75.9 259.0
08/05 07:40 8.1 79 6.58 4.7 7 9 1018.8 0 15.5 24.4 34.6 90.4 78.6 268.2
08/05 07:30 6.4 83 6.19 3.7 2 6 1018.8 0 14.7 24.3 33.7 88.1 75.1 255.6
08/05 07:20 6 82 5.96 3.2 6 7 1018.8 0 14.3 24.0 33.0 86.1 72.4 246.2
08/05 07:10 5.5 81 5.69 2.5 7 7 1018.9 0 13.7 23.7 32.1 83.7 69.3 235.1
08/05 07:00 5.2 80 5.51 2 2 9 1018.7 0 13.3 23.5 31.5 82.1 67.1 227.6
08/05 06:50 5.1 83 5.68 2.5 9 9 1018.6 0 13.7 23.8 32.2 84.0 69.5 235.8
08/05 06:40 3.9 83 5.25 1.3 4 7 1018.6 0 12.8 23.4 31.0 80.6 64.8 219.2
08/05 06:30 4.2 82 5.29 1.4 2 7 1018.6 0 12.9 23.4 31.0 80.8 65.1 220.2
08/05 06:20 4.5 83 5.46 1.9 6 7 1018.7 0 13.2 23.6 31.6 82.3 67.1 227.3
08/05 06:10 4.6 82 5.43 1.8 7 7 1018.4 0 13.2 23.5 31.4 81.8 66.6 225.6
08/05 06:00 4.5 83 5.46 1.9 6 7 1018.5 0 13.2 23.6 31.6 82.3 67.1 227.3
08/05 05:50 3.8 84 5.27 1.4 7 7 1018.5 0 12.9 23.4 31.1 80.9 65.1 220.4
08/05 05:40 4.1 83 5.32 1.5 7 9 1018.5 0 13.0 23.5 31.2 81.2 65.5 221.9
08/05 05:30 4.2 84 5.42 1.7 6 7 1018.6 0 13.2 23.6 31.5 82.2 66.8 226.3
08/05 05:20 4 83 5.28 1.4 7 7 1018.5 0 12.9 23.4 31.0 80.8 65.1 220.3
08/05 05:10 3.6 83 5.14 1 0 0 1018.6 0 12.6 23.3 30.6 79.8 63.6 214.9
08/05 05:00 3.9 83 5.25 1.3 0 0 1018.9 0 12.8 23.4 31.0 80.7 64.8 219.3
08/05 04:50 3.9 81 5.12 0.9 0 0 1018.8 0 12.5 23.2 30.4 79.3 63.1 213.2
08/05 04:40 4.5 83 5.46 1.9 0 0 1018.7 0 13.2 23.6 31.6 82.3 67.1 227.3
08/05 04:30 4.7 84 5.6 2.2 4 6 1018.5 0 13.5 23.7 32.0 83.6 68.7 233.2
08/05 04:20 4.2 85 5.48 1.9 4 6 1018.4 0 13.3 23.7 31.8 82.8 67.6 229.1
08/05 04:10 4.5 84 5.53 2 9 9 1018.3 0 13.4 23.7 31.8 83.0 68.0 230.5
08/05 04:00 4.1 82 5.25 1.3 6 11 1018.5 0 12.8 23.3 30.9 80.4 64.6 218.6
08/05 03:50 4.6 81 5.36 1.6 0 0 1018.5 0 13.0 23.4 31.1 81.1 65.6 222.3
08/05 03:40 5.3 84 5.83 2.8 7 7 1018.6 0 14.0 24.0 32.7 85.4 71.3 242.2
08/05 03:30 4.7 82 5.47 1.9 6 11 1018.8 0 13.3 23.5 31.5 82.2 67.0 227.2
08/05 03:20 4.8 82 5.5 2 0 0 1018.8 0 13.3 23.6 31.6 82.4 67.3 228.3
08/05 03:10 5.1 83 5.68 2.5 0 0 1018.7 0 13.7 23.8 32.2 84.0 69.5 235.8
08/05 03:00 5.2 81 5.58 2.2 9 11 1018.9 0 13.5 23.6 31.8 82.9 68.1 230.9
08/05 02:50 5.2 76 5.24 1.3 6 6 1019 0 12.7 23.1 30.4 79.2 63.6 215.3
08/05 02:40 5.4 78 5.45 1.9 6 7 1019 0 13.2 23.3 31.2 81.3 66.2 224.3
08/05 02:30 4.6 72 4.77 0 7 11 1019.1 0 11.8 22.5 28.8 74.9 58.0 195.4
08/05 02:20 6 69 5.01 0.8 7 7 1019.1 0 12.2 22.5 29.2 76.1 60.0 202.7
08/05 02:10 6.2 69 5.08 0.9 7 7 1019.3 0 12.4 22.6 29.4 76.6 60.8 205.4
08/05 02:00 5.3 70 4.86 0.3 6 7 1019.5 0 11.9 22.5 28.9 75.2 58.6 197.8
08/05 01:50 6 67 4.87 0.3 7 7 1019.6 0 11.9 22.3 28.7 74.7 58.3 196.6
08/05 01:40 5.6 67 4.74 0 0 0 1019.6 0 11.7 22.2 28.4 73.7 56.9 191.7
08/05 01:30 5.7 68 4.84 0.3 4 7 1019.6 0 11.9 22.3 28.7 74.6 58.1 196.0
08/05 01:20 5.8 69 4.95 0.6 6 7 1019.7 0 12.1 22.5 29.1 75.7 59.4 200.7
08/05 01:10 5.7 70 4.98 0.7 7 7 1019.8 0 12.2 22.6 29.3 76.1 59.9 202.3
08/05 01:00 5.5 69 4.85 0.3 0 0 1019.8 0 11.9 22.4 28.8 75.0 58.4 196.9
08/05 00:50 5.3 70 4.86 0.3 0 0 1020 0 11.9 22.5 28.9 75.3 58.7 197.9
08/05 00:40 5.5 68 4.78 0.1 6 7 1020.1 0 11.7 22.3 28.6 74.3 57.5 193.9
08/05 00:20 6.8 63 4.82 0.3 6 7 1020 0 11.8 22.0 28.3 73.4 57.1 192.5
08/05 00:10 8.3 56 4.72 0.1 9 13 1020 0 11.5 21.5 27.4 71.1 54.8 184.6
08/05 00:00 7.8 56 4.57 -0.4 11 15 1020.1 0 11.2 21.4 27.0 70.1 53.3 179.3
07/05 23:50 8.5 54 4.61 -0.3 9 11 1020.1 0 11.3 21.3 26.9 69.8 53.3 179.5
07/05 23:40 8.4 55 4.67 -0.1 11 11 1020.1 0 11.4 21.4 27.2 70.5 54.1 182.2
07/05 23:30 8.8 52 4.53 -0.5 9 11 1020.1 0 11.1 21.1 26.5 68.8 52.1 175.4
07/05 23:20 8.6 55 4.73 0.1 7 7 1020 0 11.5 21.5 27.3 70.9 54.7 184.3
07/05 23:10 7.4 58 4.61 -0.3 6 7 1020 0 11.3 21.6 27.3 70.8 54.0 181.9
07/05 23:00 7.2 58 4.56 -0.5 6 7 1020.1 0 11.2 21.6 27.2 70.5 53.5 180.2
07/05 22:50 7.5 55 4.4 -0.9 6 6 1020 0 10.9 21.2 26.5 68.6 51.4 172.6
07/05 22:40 8.1 53 4.41 -0.9 6 7 1020.1 0 10.9 21.1 26.3 68.2 51.1 171.8
07/05 22:30 9 50 4.41 -0.9 6 9 1019.9 0 10.8 20.9 26.0 67.4 50.5 169.9
07/05 22:20 9.6 49 4.49 -0.6 6 6 1019.9 0 11.0 20.9 26.1 67.7 51.1 172.0
07/05 22:10 9.8 47 4.36 -1 7 7 1020 0 10.7 20.7 25.6 66.3 49.4 166.1
07/05 22:00 9.8 48 4.45 -0.7 9 19 1020.2 0 10.9 20.8 25.9 67.2 50.5 169.9
07/05 21:50 9.8 48 4.45 -0.7 13 20 1020.2 0 10.9 20.8 25.9 67.2 50.5 169.9
07/05 21:40 9.8 48 4.45 -0.7 11 11 1020.3 0 10.9 20.8 25.9 67.2 50.5 169.9
07/05 21:30 9.9 48 4.48 -0.6 13 20 1020.3 0 11.0 20.8 26.0 67.4 50.8 171.0
07/05 21:20 9.7 50 4.61 -0.2 15 19 1020.3 0 11.2 21.1 26.5 68.8 52.5 176.8
07/05 21:10 9 49 4.32 -1.1 6 7 1020.3 0 10.7 20.8 25.7 66.6 49.5 166.1
07/05 21:00 9.8 47 4.36 -1 9 13 1020.3 0 10.7 20.7 25.6 66.3 49.5 166.2
07/05 20:50 9.3 49 4.4 -0.8 9 11 1020.3 0 10.8 20.8 25.9 67.1 50.2 168.9
07/05 20:40 9.6 48 4.4 -0.9 11 13 1020.3 0 10.8 20.8 25.8 66.9 50.1 168.3
07/05 20:30 9.7 49 4.52 -0.5 13 20 1020 0 11.1 20.9 26.2 67.9 51.4 173.0
07/05 20:20 9.3 50 4.49 -0.6 11 13 1019.9 0 11.0 21.0 26.2 68.0 51.3 172.6
07/05 20:10 8.7 51 4.41 -0.9 13 15 1019.7 0 10.9 21.0 26.1 67.7 50.7 170.5
07/05 20:00 9.1 50 4.44 -0.8 9 11 1019.6 0 10.9 20.9 26.1 67.6 50.8 170.9
07/05 19:50 10.1 46 4.35 -1 7 9 1019.6 0 10.7 20.6 25.4 65.9 49.1 165.1

Last Refresh: 08-May-2026 12:10:19

Bureau of Meteorology